Navigator Grace — D5DP9 — position and weather

sailwx.info

Track history (hours):
 
Tides and Currents Weather Stations Pressure Air Temp Water Temp Dewpoint Dewpoint Depression Visibility Wind Speed Wind Dir Waves Ship Positions

Navigator Grace

Last reported at 2017-Nov-18 02:28 UTC. Time now 2017-Nov-18 03:00 UTC.
Position N 36°08' W 005°22'.

Length 153 m; draft 6.1 m.

Type: Tanker. MMSI: 636015943.

Date/timePositionNaut miles runAvg speedWind from/ knotsBaromVisibWave heightAir tempDewpointWater temp
2017-Nov-18 02:28N 36°08' W 005°22'0 0.0
2017-Nov-18 01:46N 36°08' W 005°22'0 0.0
2017-Nov-18 01:16N 36°08' W 005°22'0 0.0
2017-Nov-18 00:40N 36°08' W 005°22'0 0.0
2017-Nov-18 00:25N 36°08' W 005°22'0 0.0
2017-Nov-17 23:55N 36°08' W 005°22'0 0.1
2017-Nov-17 23:04N 36°08' W 005°22'0 0.3
2017-Nov-17 22:58N 36°08' W 005°22'0 0.1
2017-Nov-17 22:28N 36°08' W 005°22'0 0.1
2017-Nov-17 22:01N 36°08' W 005°22'0 0.9
2017-Nov-17 21:30N 36°08' W 005°22'2 4.0
2017-Nov-17 21:00N 36°06' W 005°22'2 3.9
2017-Nov-17 20:30N 36°04' W 005°20'4 7.0
2017-Nov-17 20:00N 36°04' W 005°16'3 0.3
2017-Nov-17 09:26N 36°02' W 005°14'614.6
2017-Nov-17 09:01N 35°59' W 005°21'714.9
2017-Nov-17 08:31N 35°57' W 005°30'  
2017-Nov-10 10:40N 37°59' W 010°02'415.4
2017-Nov-10 10:23N 38°03' W 010°03'615.7
2017-Nov-10 10:00N 38°09' W 010°04'815.6
2017-Nov-10 09:30N 38°17' W 010°06'815.4
2017-Nov-10 09:00N 38°25' W 010°07'815.3
2017-Nov-10 08:30N 38°32' W 010°09'815.4
2017-Nov-10 08:00N 38°40' W 010°11'714.9
2017-Nov-10 07:30N 38°47' W 010°12'714.7
2017-Nov-10 07:00N 38°55' W 010°11'815.2
2017-Nov-10 06:30N 39°02' W 010°11'714.9
2017-Nov-10 06:00N 39°10' W 010°12'814.9
2017-Nov-10 05:30N 39°17' W 010°12'815.4
2017-Nov-10 05:00N 39°25' W 010°12'815.4
2017-Nov-10 04:29N 39°33' W 010°12'66314.2
2017-Nov-08 05:40N 49°38' W 003°51'1113.9
2017-Nov-08 04:54N 49°44' W 003°37'715.1
2017-Nov-08 04:27N 49°47' W 003°28'715.9
2017-Nov-08 04:01N 49°51' W 003°19'816.5
2017-Nov-08 03:30N 49°55' W 003°08'816.9
2017-Nov-08 03:01N 49°59' W 002°56'816.5
2017-Nov-08 02:30N 50°01' W 002°44'  
Track history (hours):
 
Tides and Currents Weather Stations Pressure Air Temp Water Temp Dewpoint Dewpoint Depression Visibility Wind Speed Wind Dir Waves Ship Positions

Navigator Grace

Last reported at 2017-Nov-18 02:28 UTC. Time now 2017-Nov-18 03:00 UTC.
Position N 36°08' W 005°22'.

Length 153 m; draft 6.1 m.

Type: Tanker. MMSI: 636015943.

Date/timePositionNaut miles runAvg speedWind from/ knotsBaromVisibWave heightAir tempDewpointWater temp
2017-Nov-18 02:28N 36°08' W 005°22'0 0.0
2017-Nov-18 01:46N 36°08' W 005°22'0 0.0
2017-Nov-18 01:16N 36°08' W 005°22'0 0.0
2017-Nov-18 00:40N 36°08' W 005°22'0 0.0
2017-Nov-18 00:25N 36°08' W 005°22'0 0.0
2017-Nov-17 23:55N 36°08' W 005°22'0 0.1
2017-Nov-17 23:04N 36°08' W 005°22'0 0.3
2017-Nov-17 22:58N 36°08' W 005°22'0 0.1
2017-Nov-17 22:28N 36°08' W 005°22'0 0.1
2017-Nov-17 22:01N 36°08' W 005°22'0 0.9
2017-Nov-17 21:30N 36°08' W 005°22'2 4.0
2017-Nov-17 21:00N 36°06' W 005°22'2 3.9
2017-Nov-17 20:30N 36°04' W 005°20'4 7.0
2017-Nov-17 20:00N 36°04' W 005°16'3 0.3
2017-Nov-17 09:26N 36°02' W 005°14'614.6
2017-Nov-17 09:01N 35°59' W 005°21'714.9
2017-Nov-17 08:31N 35°57' W 005°30'  
2017-Nov-10 10:40N 37°59' W 010°02'415.4
2017-Nov-10 10:23N 38°03' W 010°03'615.7
2017-Nov-10 10:00N 38°09' W 010°04'815.6
2017-Nov-10 09:30N 38°17' W 010°06'815.4
2017-Nov-10 09:00N 38°25' W 010°07'815.3
2017-Nov-10 08:30N 38°32' W 010°09'815.4
2017-Nov-10 08:00N 38°40' W 010°11'714.9
2017-Nov-10 07:30N 38°47' W 010°12'714.7
2017-Nov-10 07:00N 38°55' W 010°11'815.2
2017-Nov-10 06:30N 39°02' W 010°11'714.9
2017-Nov-10 06:00N 39°10' W 010°12'814.9
2017-Nov-10 05:30N 39°17' W 010°12'815.4
2017-Nov-10 05:00N 39°25' W 010°12'815.4
2017-Nov-10 04:29N 39°33' W 010°12'66314.2
2017-Nov-08 05:40N 49°38' W 003°51'1113.9
2017-Nov-08 04:54N 49°44' W 003°37'715.1
2017-Nov-08 04:27N 49°47' W 003°28'715.9
2017-Nov-08 04:01N 49°51' W 003°19'816.5
2017-Nov-08 03:30N 49°55' W 003°08'816.9
2017-Nov-08 03:01N 49°59' W 002°56'816.5
2017-Nov-08 02:30N 50°01' W 002°44'  

Dump ship's entire track history